Time;durP1;ratioP1;P1;durP2;ratioP2;P2;SDS_P1;SDS_P2;PMS_P1;PMS_P2;Temp;Humidity;BMP_temperature;BMP_pressure;BME280_temperature;BME280_humidity;BME280_pressure;Samples;Min_cycle;Max_cycle;Signal;HPM_P1;HPM_P2
2021/05/23 00:00:39;;;;;;;2.23;1.77;;;11.30;99.90;;;;;;5104131;27;20546;-72
2021/05/23 00:03:08;;;;;;;3.40;2.27;;;11.40;99.90;;;;;;5101369;28;20403;-74
2021/05/23 00:05:38;;;;;;;2.97;2.37;;;11.40;99.90;;;;;;5095367;28;20816;-74
2021/05/23 00:08:07;;;;;;;3.70;2.10;;;11.30;99.90;;;;;;5096203;28;20407;-73
2021/05/23 00:10:38;;;;;;;2.05;1.75;;;11.30;99.90;;;;;;5096308;27;20404;-73
2021/05/23 00:13:05;;;;;;;1.90;1.40;;;11.30;99.90;;;;;;5095087;28;20184;-73
2021/05/23 00:15:39;;;;;;;2.30;1.70;;;11.20;99.90;;;;;;5098088;28;20530;-73
2021/05/23 00:18:09;;;;;;;2.30;1.83;;;11.20;99.90;;;;;;5097016;28;20422;-73
2021/05/23 00:20:37;;;;;;;1.70;1.60;;;11.30;99.90;;;;;;5101560;28;20449;-72
2021/05/23 00:23:04;;;;;;;2.23;1.50;;;11.20;99.90;;;;;;5107629;27;20501;-73
2021/05/23 00:25:31;;;;;;;2.50;1.53;;;11.20;99.90;;;;;;5095763;28;20571;-73
2021/05/23 00:27:56;;;;;;;4.40;1.70;;;11.10;99.90;;;;;;5099389;28;20426;-75
2021/05/23 00:30:23;;;;;;;2.40;1.60;;;11.10;99.90;;;;;;5101614;28;20502;-73
2021/05/23 00:32:50;;;;;;;3.73;1.90;;;11.10;99.90;;;;;;5118479;28;20230;-74
2021/05/23 00:35:16;;;;;;;1.83;1.63;;;11.10;99.90;;;;;;5115656;28;20440;-74
2021/05/23 00:37:42;;;;;;;2.77;1.50;;;11.20;99.90;;;;;;5101792;27;20436;-73
2021/05/23 00:40:09;;;;;;;1.90;1.50;;;11.20;99.90;;;;;;5118618;28;20445;-73
2021/05/23 00:42:35;;;;;;;1.87;1.60;;;11.10;99.90;;;;;;5118271;28;20906;-75
2021/05/23 00:45:02;;;;;;;1.47;1.37;;;11.10;99.90;;;;;;5115468;28;20453;-75
2021/05/23 00:47:28;;;;;;;3.17;1.93;;;11.10;99.90;;;;;;5108521;27;20494;-73
2021/05/23 00:49:53;;;;;;;2.23;2.03;;;11.10;99.90;;;;;;5112912;28;20430;-74
2021/05/23 00:52:19;;;;;;;3.03;1.87;;;11.10;99.90;;;;;;5115382;28;20206;-75
2021/05/23 00:54:45;;;;;;;2.10;1.70;;;11.00;99.90;;;;;;5116107;28;20192;-73
2021/05/23 00:57:11;;;;;;;2.23;1.80;;;11.00;99.90;;;;;;5115067;28;20418;-73
2021/05/23 00:59:36;;;;;;;6.00;2.23;;;11.10;99.90;;;;;;5114825;28;20185;-73
2021/05/23 01:02:07;;;;;;;2.33;2.13;;;11.00;99.90;;;;;;5113457;28;20180;-74
2021/05/23 01:04:34;;;;;;;1.87;1.57;;;11.10;99.90;;;;;;5112912;27;20688;-74
2021/05/23 01:07:00;;;;;;;1.73;1.63;;;11.10;99.90;;;;;;5100513;28;20435;-73
2021/05/23 01:09:26;;;;;;;2.85;1.80;;;11.10;99.90;;;;;;5094829;28;20820;-73
2021/05/23 01:11:51;;;;;;;1.90;1.73;;;11.20;99.90;;;;;;5095098;28;20204;-73
2021/05/23 01:14:50;;;;;;;2.43;1.57;;;11.20;99.90;;;;;;5094963;28;20608;-74
2021/05/23 01:17:20;;;;;;;1.77;1.50;;;11.20;99.90;;;;;;5099087;27;20188;-74
2021/05/23 01:20:07;;;;;;;3.10;1.70;;;11.20;99.90;;;;;;5113570;28;20411;-73
2021/05/23 01:22:48;;;;;;;3.30;1.83;;;11.30;99.90;;;;;;5116117;28;20468;-73
2021/05/23 01:25:20;;;;;;;2.17;1.80;;;11.20;99.90;;;;;;5115183;28;20425;-74
2021/05/23 01:27:51;;;;;;;1.63;1.53;;;11.20;99.90;;;;;;5115668;28;20839;-74
2021/05/23 01:30:29;;;;;;;1.67;1.57;;;11.20;99.90;;;;;;5113795;28;20467;-73
2021/05/23 01:32:58;;;;;;;1.87;1.70;;;11.20;99.90;;;;;;5114949;28;20976;-74
2021/05/23 01:35:36;;;;;;;2.70;2.10;;;11.30;99.90;;;;;;5114476;27;20442;-73
2021/05/23 01:38:03;;;;;;;2.50;1.83;;;11.30;99.90;;;;;;5114717;27;20409;-73
2021/05/23 01:40:33;;;;;;;1.53;1.43;;;11.30;99.90;;;;;;5115106;28;20485;-73
2021/05/23 01:42:59;;;;;;;3.30;2.07;;;11.30;99.90;;;;;;5113554;27;20438;-73
2021/05/23 01:45:26;;;;;;;2.50;1.37;;;11.30;99.90;;;;;;5110730;28;20457;-73
2021/05/23 01:47:52;;;;;;;2.20;1.77;;;11.20;99.90;;;;;;5118713;28;20834;-74
2021/05/23 01:50:18;;;;;;;1.60;1.50;;;11.20;99.90;;;;;;5119184;28;20431;-73
2021/05/23 01:52:56;;;;;;;2.60;1.50;;;11.10;99.90;;;;;;5116872;27;20538;-73
2021/05/23 01:55:22;;;;;;;1.50;1.40;;;11.00;99.90;;;;;;5114883;28;20441;-73
2021/05/23 01:57:48;;;;;;;3.33;1.50;;;11.00;99.90;;;;;;5112033;28;20421;-73
2021/05/23 02:00:17;;;;;;;2.00;1.43;;;11.00;99.90;;;;;;5114419;28;20410;-74
2021/05/23 02:02:42;;;;;;;2.00;1.40;;;11.00;99.90;;;;;;5107515;27;20424;-73
2021/05/23 02:05:09;;;;;;;2.10;1.57;;;11.10;99.90;;;;;;5094189;28;20951;-73
2021/05/23 02:07:35;;;;;;;2.40;1.57;;;11.00;99.90;;;;;;5094438;28;20414;-73
2021/05/23 02:10:08;;;;;;;1.60;1.50;;;11.00;99.90;;;;;;5094379;28;20423;-73
2021/05/23 02:12:33;;;;;;;3.27;1.80;;;11.10;99.90;;;;;;5096696;28;20466;-73
2021/05/23 02:15:01;;;;;;;2.10;1.90;;;11.00;99.90;;;;;;5113781;28;20453;-73
2021/05/23 02:17:26;;;;;;;5.00;1.80;;;10.90;99.90;;;;;;5114373;28;20172;-73
2021/05/23 02:19:52;;;;;;;1.80;1.67;;;10.90;99.90;;;;;;5114301;27;20410;-73
2021/05/23 02:22:17;;;;;;;2.50;2.10;;;10.90;99.90;;;;;;5113544;28;20949;-73
2021/05/23 02:24:44;;;;;;;2.70;2.20;;;10.80;99.90;;;;;;5112188;27;20324;-73
2021/05/23 02:27:10;;;;;;;1.90;1.80;;;10.90;99.90;;;;;;5114641;28;20272;-73
2021/05/23 02:29:36;;;;;;;4.87;2.10;;;11.00;99.90;;;;;;5113834;28;20448;-73
2021/05/23 02:32:05;;;;;;;2.93;2.17;;;11.00;99.90;;;;;;5113918;28;20536;-73
2021/05/23 02:34:31;;;;;;;2.70;1.90;;;10.90;99.90;;;;;;5104701;28;20220;-73
2021/05/23 02:37:00;;;;;;;2.33;2.13;;;11.00;99.90;;;;;;5104084;27;20575;-73
2021/05/23 02:39:26;;;;;;;2.70;2.00;;;11.00;99.90;;;;;;5114168;28;20258;-73
2021/05/23 02:41:52;;;;;;;2.50;2.33;;;11.00;99.90;;;;;;5113908;28;20540;-73
2021/05/23 02:44:18;;;;;;;2.30;2.10;;;10.90;99.90;;;;;;5111850;28;20263;-73
2021/05/23 02:46:44;;;;;;;5.40;2.70;;;10.90;99.90;;;;;;5113668;28;20779;-73
2021/05/23 02:49:14;;;;;;;2.70;2.50;;;10.90;99.90;;;;;;5114233;27;20425;-73
2021/05/23 02:51:40;;;;;;;2.40;2.03;;;10.90;99.90;;;;;;5113735;28;20199;-73
2021/05/23 02:54:06;;;;;;;3.17;2.30;;;10.90;99.90;;;;;;5112258;28;20418;-73
2021/05/23 02:56:32;;;;;;;2.40;1.90;;;10.90;99.90;;;;;;5112202;28;20460;-73
2021/05/23 02:58:57;;;;;;;2.30;2.10;;;10.80;99.90;;;;;;5115344;28;20759;-73
2021/05/23 03:01:23;;;;;;;2.40;2.20;;;10.80;99.90;;;;;;5117757;28;20266;-73
2021/05/23 03:03:48;;;;;;;2.40;2.20;;;10.80;99.90;;;;;;5114408;28;20214;-73
2021/05/23 03:06:14;;;;;;;5.10;2.60;;;10.90;99.90;;;;;;5106982;28;20216;-73
2021/05/23 03:08:39;;;;;;;2.70;2.50;;;10.80;99.90;;;;;;5095212;27;20216;-74
2021/05/23 03:11:05;;;;;;;4.20;2.67;;;10.90;99.90;;;;;;5092981;28;20200;-74
2021/05/23 03:13:31;;;;;;;3.30;3.00;;;10.80;99.90;;;;;;5095358;28;20185;-73
2021/05/23 03:15:56;;;;;;;3.03;2.83;;;10.70;99.90;;;;;;5094952;28;20245;-73
2021/05/23 03:18:22;;;;;;;3.43;3.13;;;10.60;99.90;;;;;;5092044;28;20172;-73
2021/05/23 03:20:47;;;;;;;3.60;2.97;;;10.70;99.90;;;;;;5093504;28;20176;-73
2021/05/23 03:23:13;;;;;;;5.20;3.33;;;10.70;99.90;;;;;;5092742;28;20405;-73
2021/05/23 03:25:39;;;;;;;3.83;3.60;;;10.70;99.90;;;;;;5096489;28;20197;-74
2021/05/23 03:28:06;;;;;;;4.57;4.17;;;10.70;99.90;;;;;;5098311;28;20948;-73
2021/05/23 03:30:37;;;;;;;5.17;4.67;;;10.60;99.90;;;;;;5096950;28;20647;-73
2021/05/23 03:33:04;;;;;;;5.57;4.70;;;10.70;99.90;;;;;;5114737;28;20462;-73
2021/05/23 03:35:30;;;;;;;4.77;4.37;;;10.60;99.90;;;;;;5117519;28;20517;-73
2021/05/23 03:37:55;;;;;;;5.30;4.80;;;10.60;99.90;;;;;;5115460;27;20433;-73
2021/05/23 03:40:21;;;;;;;5.60;5.20;;;10.70;99.90;;;;;;5114341;28;20471;-73
2021/05/23 03:42:48;;;;;;;5.43;5.03;;;10.70;99.90;;;;;;5096468;28;20173;-73
2021/05/23 03:45:16;;;;;;;5.73;5.33;;;10.60;99.90;;;;;;5097304;28;20193;-74
2021/05/23 03:47:42;;;;;;;5.30;4.90;;;10.60;99.90;;;;;;5096191;27;20505;-73
2021/05/23 03:50:10;;;;;;;5.67;5.27;;;10.70;99.90;;;;;;5097545;28;20438;-73
2021/05/23 03:52:36;;;;;;;5.40;5.00;;;10.70;99.90;;;;;;5096919;28;20537;-73
2021/05/23 03:55:03;;;;;;;5.67;5.13;;;10.70;99.90;;;;;;5096262;28;20500;-73
2021/05/23 03:57:29;;;;;;;5.63;5.23;;;10.70;99.90;;;;;;5096526;28;20530;-73
2021/05/23 03:59:54;;;;;;;6.37;5.87;;;10.80;99.90;;;;;;5097928;27;20501;-74
2021/05/23 04:02:20;;;;;;;6.27;5.67;;;10.70;99.90;;;;;;5096517;28;20165;-74
2021/05/23 04:04:48;;;;;;;6.77;6.27;;;10.70;99.90;;;;;;5112502;28;20205;-72
2021/05/23 04:07:15;;;;;;;6.70;6.10;;;10.80;99.90;;;;;;5114935;28;20317;-73
2021/05/23 04:09:41;;;;;;;6.47;5.97;;;10.70;99.90;;;;;;5097935;28;20427;-73
2021/05/23 04:12:08;;;;;;;7.60;6.80;;;10.70;99.90;;;;;;5096440;28;20458;-72
2021/05/23 04:14:34;;;;;;;7.50;6.90;;;10.70;99.90;;;;;;5096606;28;20550;-73
2021/05/23 04:16:59;;;;;;;8.00;7.30;;;10.70;99.90;;;;;;5096769;28;20427;-72
2021/05/23 04:19:25;;;;;;;7.40;6.70;;;10.60;99.90;;;;;;5097443;27;20188;-74
2021/05/23 04:21:50;;;;;;;7.53;6.83;;;10.70;99.90;;;;;;5097626;28;20173;-74
2021/05/23 04:24:16;;;;;;;8.20;7.50;;;10.80;99.90;;;;;;5116061;28;20183;-74
2021/05/23 04:26:41;;;;;;;7.70;7.10;;;10.80;99.90;;;;;;5100036;28;20637;-74
2021/05/23 04:29:07;;;;;;;7.13;6.57;;;10.70;99.90;;;;;;5095935;28;20177;-73
2021/05/23 04:31:33;;;;;;;7.60;7.00;;;10.70;99.90;;;;;;5097151;27;20220;-73
2021/05/23 04:33:58;;;;;;;7.13;6.53;;;10.80;99.90;;;;;;5095913;28;20169;-73
2021/05/23 04:36:24;;;;;;;6.83;6.27;;;10.90;99.90;;;;;;5095752;28;20219;-73
2021/05/23 04:38:49;;;;;;;6.87;6.33;;;10.80;99.90;;;;;;5104246;28;20186;-73
2021/05/23 04:41:15;;;;;;;8.30;7.60;;;10.90;99.90;;;;;;5097603;28;20491;-72
2021/05/23 04:43:40;;;;;;;8.40;7.70;;;10.80;99.90;;;;;;5105030;28;20656;-72
2021/05/23 04:46:06;;;;;;;8.23;6.80;;;10.80;99.90;;;;;;5116124;28;20188;-73
2021/05/23 04:48:32;;;;;;;9.03;7.70;;;10.80;99.90;;;;;;5116718;28;20172;-72
2021/05/23 04:50:57;;;;;;;8.60;7.80;;;10.80;99.90;;;;;;5113719;27;20195;-74
2021/05/23 04:53:23;;;;;;;9.30;8.50;;;10.90;99.90;;;;;;5095063;28;20172;-73
2021/05/23 04:55:48;;;;;;;9.00;8.13;;;10.90;99.90;;;;;;5095518;28;20197;-72
2021/05/23 04:58:14;;;;;;;10.50;9.47;;;10.80;99.90;;;;;;5096069;28;20172;-72
2021/05/23 05:00:40;;;;;;;9.67;8.70;;;10.80;99.90;;;;;;5096057;27;20184;-73
2021/05/23 05:03:05;;;;;;;9.80;8.80;;;10.90;99.90;;;;;;5096834;28;20189;-72
2021/05/23 05:05:31;;;;;;;9.93;8.93;;;10.80;99.90;;;;;;5126248;27;20662;-73
2021/05/23 05:07:56;;;;;;;11.90;9.97;;;10.80;99.90;;;;;;5109447;28;20191;-74
2021/05/23 05:10:22;;;;;;;11.00;9.87;;;10.80;99.90;;;;;;5140338;27;20203;-73
2021/05/23 05:12:48;;;;;;;11.37;10.27;;;10.90;99.90;;;;;;5124054;28;20230;-73
2021/05/23 05:15:14;;;;;;;11.60;9.93;;;10.90;99.90;;;;;;5095318;28;20589;-74
2021/05/23 05:17:39;;;;;;;13.57;10.43;;;10.90;99.90;;;;;;5095543;28;20222;-72
2021/05/23 05:20:07;;;;;;;12.57;10.57;;;10.80;99.90;;;;;;5095711;28;20900;-72
2021/05/23 05:22:33;;;;;;;11.10;10.00;;;10.80;99.90;;;;;;5094871;27;20265;-73
2021/05/23 05:24:58;;;;;;;10.43;9.43;;;10.80;99.90;;;;;;5096013;28;20801;-73
2021/05/23 05:27:25;;;;;;;10.70;9.63;;;10.70;99.90;;;;;;5095327;28;20442;-72
2021/05/23 05:29:51;;;;;;;10.30;9.30;;;10.80;99.90;;;;;;5095086;28;20200;-74
2021/05/23 05:32:16;;;;;;;10.30;9.30;;;10.80;99.90;;;;;;5115429;28;20462;-73
2021/05/23 05:34:42;;;;;;;9.50;8.50;;;10.90;99.90;;;;;;5114692;27;20279;-72
2021/05/23 05:37:07;;;;;;;10.93;8.30;;;10.90;99.90;;;;;;5101702;28;20715;-71
2021/05/23 05:39:33;;;;;;;8.57;7.77;;;10.90;99.90;;;;;;5108115;28;20181;-72
2021/05/23 05:41:58;;;;;;;8.03;7.23;;;10.80;99.90;;;;;;5095917;28;20258;-73
2021/05/23 05:44:25;;;;;;;7.03;6.30;;;10.90;99.90;;;;;;5101098;28;20253;-73
2021/05/23 05:46:51;;;;;;;6.83;6.13;;;10.80;99.90;;;;;;5108864;28;20225;-73
2021/05/23 05:49:17;;;;;;;6.40;5.80;;;10.80;99.90;;;;;;5112305;27;20429;-73
2021/05/23 05:51:43;;;;;;;10.03;7.50;;;10.80;99.90;;;;;;5113134;28;20453;-73
2021/05/23 05:54:08;;;;;;;6.47;5.67;;;10.70;99.90;;;;;;5094343;28;20832;-73
2021/05/23 05:56:34;;;;;;;6.40;5.80;;;10.70;99.90;;;;;;5094707;28;20417;-73
2021/05/23 05:59:00;;;;;;;6.53;5.80;;;10.60;99.90;;;;;;5095747;28;20629;-73
2021/05/23 06:01:25;;;;;;;5.77;4.90;;;10.60;99.90;;;;;;5094669;28;20538;-73
2021/05/23 06:03:51;;;;;;;5.10;4.70;;;10.60;99.90;;;;;;5100548;28;20183;-73
2021/05/23 06:06:16;;;;;;;4.70;3.80;;;10.60;99.90;;;;;;5114880;27;20262;-73
2021/05/23 06:08:42;;;;;;;6.53;4.10;;;10.70;99.90;;;;;;5107851;28;20646;-73
2021/05/23 06:11:07;;;;;;;5.33;4.10;;;10.70;99.90;;;;;;5111741;27;20179;-74
2021/05/23 06:13:33;;;;;;;5.27;4.33;;;10.70;99.90;;;;;;5114432;27;20649;-73
2021/05/23 06:15:58;;;;;;;3.87;3.57;;;10.70;99.90;;;;;;5111893;27;20208;-74
2021/05/23 06:18:25;;;;;;;6.63;3.20;;;10.70;99.90;;;;;;5095822;28;20636;-73
2021/05/23 06:20:51;;;;;;;3.00;2.67;;;10.70;99.90;;;;;;5116370;27;20632;-73
2021/05/23 06:23:17;;;;;;;3.10;2.90;;;10.70;99.90;;;;;;5093747;28;20407;-72
2021/05/23 06:25:43;;;;;;;4.53;2.80;;;10.70;99.90;;;;;;5094285;28;20476;-72
2021/05/23 06:28:08;;;;;;;8.17;3.67;;;10.70;99.90;;;;;;5112475;27;20433;-72
2021/05/23 06:30:34;;;;;;;7.53;3.70;;;10.60;99.90;;;;;;5127867;27;20549;-73
2021/05/23 06:33:00;;;;;;;5.87;3.93;;;10.60;99.90;;;;;;5110374;28;20641;-72
2021/05/23 06:35:25;;;;;;;4.50;3.90;;;10.60;99.90;;;;;;5113392;27;20197;-73
2021/05/23 06:37:51;;;;;;;4.13;3.43;;;10.60;99.90;;;;;;5101619;28;20556;-72
2021/05/23 06:40:16;;;;;;;6.27;3.43;;;10.60;99.90;;;;;;5100280;28;20521;-71
2021/05/23 06:42:42;;;;;;;3.47;3.13;;;10.50;99.90;;;;;;5100044;28;20245;-72
2021/05/23 06:45:08;;;;;;;4.30;3.90;;;10.60;99.90;;;;;;5115022;27;20326;-73
2021/05/23 06:47:33;;;;;;;5.60;3.80;;;10.60;99.90;;;;;;5097884;28;20206;-74
2021/05/23 06:49:59;;;;;;;5.80;4.37;;;10.50;99.90;;;;;;5105874;28;20432;-74
2021/05/23 06:52:26;;;;;;;5.20;4.20;;;10.50;99.90;;;;;;5097596;28;20553;-74
2021/05/23 06:54:51;;;;;;;5.00;4.30;;;10.40;99.90;;;;;;5103657;28;20201;-73
2021/05/23 06:57:17;;;;;;;4.90;4.40;;;10.30;99.90;;;;;;5101747;27;20430;-74
2021/05/23 06:59:42;;;;;;;4.40;3.93;;;10.30;99.90;;;;;;5102493;28;20180;-73
2021/05/23 07:02:21;;;;;;;5.50;3.60;;;10.30;99.90;;;;;;5117763;28;20229;-73
2021/05/23 07:04:47;;;;;;;5.30;4.07;;;10.40;99.90;;;;;;5112288;28;20206;-73
2021/05/23 07:07:12;;;;;;;4.80;4.13;;;10.40;99.90;;;;;;5102763;28;20942;-74
2021/05/23 07:09:39;;;;;;;4.37;3.57;;;10.40;99.90;;;;;;5107534;27;20441;-72
2021/05/23 07:12:05;;;;;;;5.17;4.00;;;10.50;99.90;;;;;;5102377;28;20906;-73
2021/05/23 07:14:31;;;;;;;4.73;4.23;;;10.70;99.90;;;;;;5114314;28;20441;-73
2021/05/23 07:16:57;;;;;;;7.70;4.50;;;10.80;99.90;;;;;;5106360;28;20419;-72
2021/05/23 07:19:22;;;;;;;5.93;3.90;;;10.90;99.90;;;;;;5110894;27;20215;-72
2021/05/23 07:21:48;;;;;;;5.17;3.93;;;11.00;99.90;;;;;;5110746;27;20679;-72
2021/05/23 07:24:14;;;;;;;6.80;4.10;;;11.00;99.90;;;;;;5115849;28;20633;-72
2021/05/23 07:26:39;;;;;;;4.03;3.50;;;11.20;99.90;;;;;;5117291;28;20190;-72
2021/05/23 07:29:06;;;;;;;5.83;3.43;;;11.20;99.90;;;;;;5117508;28;20425;-73
2021/05/23 07:31:32;;;;;;;4.03;3.40;;;11.30;99.90;;;;;;5111532;27;20207;-72
2021/05/23 07:33:58;;;;;;;5.33;3.40;;;11.50;99.90;;;;;;5108573;28;20409;-72
2021/05/23 07:36:24;;;;;;;4.53;3.27;;;11.60;99.90;;;;;;5122480;28;20184;-71
2021/05/23 07:38:50;;;;;;;3.70;2.80;;;11.70;99.90;;;;;;5115134;28;20425;-71
2021/05/23 07:41:16;;;;;;;7.07;3.40;;;11.70;99.90;;;;;;5108791;27;20552;-72
2021/05/23 07:43:41;;;;;;;4.37;3.23;;;11.70;99.90;;;;;;5117497;28;20176;-73
2021/05/23 07:46:07;;;;;;;5.77;2.90;;;11.80;99.90;;;;;;5116499;28;20525;-72
2021/05/23 07:48:32;;;;;;;6.07;3.10;;;12.00;99.90;;;;;;5118244;28;20172;-73
2021/05/23 07:50:58;;;;;;;6.63;3.00;;;12.10;99.90;;;;;;5117536;28;20567;-74
2021/05/23 07:53:24;;;;;;;2.80;2.60;;;12.30;99.90;;;;;;5107274;27;20201;-74
2021/05/23 07:55:49;;;;;;;4.77;2.60;;;12.50;99.90;;;;;;5105590;28;20448;-75
2021/05/23 07:58:15;;;;;;;3.63;2.77;;;12.40;99.90;;;;;;5102435;28;20253;-74
2021/05/23 08:00:41;;;;;;;2.60;2.40;;;12.70;99.90;;;;;;5110877;28;20698;-72
2021/05/23 08:03:09;;;;;;;3.73;2.90;;;12.70;99.90;;;;;;5120144;27;20191;-73
2021/05/23 08:05:35;;;;;;;6.57;2.90;;;12.80;99.90;;;;;;5094757;28;20472;-73
2021/05/23 08:08:00;;;;;;;2.67;2.47;;;12.90;99.90;;;;;;5114370;28;20202;-74
2021/05/23 08:10:27;;;;;;;2.97;2.53;;;12.80;99.90;;;;;;5093664;28;20173;-73
2021/05/23 08:12:53;;;;;;;5.88;2.65;;;12.80;99.90;;;;;;5099817;28;20767;-74
2021/05/23 08:15:19;;;;;;;3.37;2.07;;;13.10;99.90;;;;;;5106335;27;20218;-74
2021/05/23 08:17:45;;;;;;;4.30;2.13;;;13.30;99.90;;;;;;5101335;28;20188;-72
2021/05/23 08:20:13;;;;;;;1.87;1.70;;;13.30;99.90;;;;;;5111130;27;20661;-72
2021/05/23 08:22:39;;;;;;;2.13;1.83;;;13.10;98.60;;;;;;5099050;28;20450;-72
2021/05/23 08:25:07;;;;;;;3.47;2.10;;;13.10;98.60;;;;;;5101200;28;20458;-72
2021/05/23 08:27:32;;;;;;;2.80;1.77;;;13.20;99.00;;;;;;5103324;28;20930;-71
2021/05/23 08:30:01;;;;;;;2.97;2.00;;;13.20;98.30;;;;;;5100027;28;20438;-73
2021/05/23 08:32:27;;;;;;;5.13;1.93;;;13.20;97.90;;;;;;5112695;28;20204;-74
2021/05/23 08:34:52;;;;;;;3.30;2.13;;;13.30;97.60;;;;;;5123020;27;20462;-72
2021/05/23 08:37:18;;;;;;;3.70;1.73;;;13.30;97.30;;;;;;5105897;28;20171;-72
2021/05/23 08:39:44;;;;;;;2.00;1.43;;;13.40;97.20;;;;;;5113033;28;20180;-73
2021/05/23 08:42:10;;;;;;;3.13;1.80;;;13.50;97.30;;;;;;5115157;28;20418;-72
2021/05/23 08:44:36;;;;;;;5.43;1.60;;;13.60;97.10;;;;;;5109549;27;20221;-72
2021/05/23 08:47:02;;;;;;;3.90;1.87;;;13.80;97.10;;;;;;5096249;28;20212;-72
2021/05/23 08:49:29;;;;;;;2.47;1.80;;;13.80;96.40;;;;;;5097289;28;20488;-73
2021/05/23 08:51:55;;;;;;;5.23;1.60;;;13.50;96.60;;;;;;5095790;28;20224;-72
2021/05/23 08:54:21;;;;;;;5.53;2.10;;;13.40;95.90;;;;;;5097576;28;20453;-72
2021/05/23 08:56:49;;;;;;;3.20;1.97;;;13.60;96.40;;;;;;5098475;28;20197;-71
2021/05/23 08:59:15;;;;;;;5.40;2.00;;;13.80;96.60;;;;;;5099155;28;20211;-72
2021/05/23 09:01:41;;;;;;;3.20;1.80;;;13.80;95.70;;;;;;5097080;28;20412;-71
2021/05/23 09:04:09;;;;;;;6.40;1.80;;;13.50;94.90;;;;;;5105214;27;20560;-72
2021/05/23 09:06:37;;;;;;;4.17;1.87;;;13.50;94.80;;;;;;5101152;28;20538;-72
2021/05/23 09:09:08;;;;;;;4.18;1.60;;;13.50;94.80;;;;;;5104024;28;20417;-72
2021/05/23 09:11:35;;;;;;;4.63;1.70;;;13.60;95.20;;;;;;5101058;28;20213;-72
2021/05/23 09:14:01;;;;;;;1.73;1.63;;;13.70;95.60;;;;;;5095386;28;20415;-72
2021/05/23 09:16:39;;;;;;;3.60;1.83;;;14.00;95.40;;;;;;5095762;28;20497;-72
2021/05/23 09:19:06;;;;;;;2.67;1.53;;;14.30;95.00;;;;;;5105102;27;20957;-72
2021/05/23 09:21:37;;;;;;;5.53;1.90;;;14.40;93.80;;;;;;5096277;28;20783;-72
2021/05/23 09:24:10;;;;;;;3.37;1.53;;;14.40;93.40;;;;;;5094577;27;20514;-73
2021/05/23 09:26:39;;;;;;;4.50;1.23;;;14.30;93.50;;;;;;5095020;28;20942;-73
2021/05/23 09:29:17;;;;;;;3.80;2.07;;;14.30;92.90;;;;;;5095008;28;20427;-73
2021/05/23 09:31:46;;;;;;;2.07;1.50;;;14.30;92.90;;;;;;5110108;28;20803;-74
2021/05/23 09:34:23;;;;;;;3.53;1.53;;;14.20;92.50;;;;;;5114377;28;20430;-73
2021/05/23 09:36:52;;;;;;;3.83;1.57;;;14.10;92.60;;;;;;5100133;27;20419;-73
2021/05/23 09:39:18;;;;;;;5.97;1.90;;;13.80;92.70;;;;;;5094746;28;20717;-73
2021/05/23 09:41:45;;;;;;;3.13;1.43;;;13.80;93.70;;;;;;5095098;28;20440;-73
2021/05/23 09:44:16;;;;;;;4.20;1.93;;;13.90;93.70;;;;;;5095544;28;20434;-73
2021/05/23 09:47:00;;;;;;;2.17;1.70;;;13.90;94.10;;;;;;5094713;28;20426;-72
2021/05/23 09:49:28;;;;;;;3.77;1.50;;;13.90;94.00;;;;;;5095049;28;20430;-72
2021/05/23 09:52:02;;;;;;;3.60;1.90;;;14.00;93.80;;;;;;5094545;28;20473;-71
2021/05/23 09:54:30;;;;;;;2.30;1.37;;;14.00;93.70;;;;;;5097230;27;20802;-71
2021/05/23 09:56:57;;;;;;;6.33;2.10;;;14.20;93.50;;;;;;5105935;28;20421;-71
2021/05/23 09:59:28;;;;;;;1.70;1.60;;;14.30;93.10;;;;;;5113499;28;20418;-72
2021/05/23 10:02:18;;;;;;;2.30;1.47;;;14.30;93.10;;;;;;5114856;28;20448;-72
2021/05/23 10:04:43;;;;;;;3.17;1.70;;;14.50;93.20;;;;;;5096742;28;20508;-71
2021/05/23 10:07:13;;;;;;;3.60;1.53;;;14.70;92.20;;;;;;5093840;27;20931;-73
2021/05/23 10:09:40;;;;;;;2.13;1.13;;;14.80;92.50;;;;;;5089976;27;20191;-72
2021/05/23 10:12:09;;;;;;;3.37;1.77;;;14.60;91.50;;;;;;5101896;27;20462;-72
2021/05/23 10:14:35;;;;;;;3.60;1.40;;;14.50;91.70;;;;;;5094023;28;20438;-71
2021/05/23 10:17:03;;;;;;;3.63;1.60;;;14.50;91.40;;;;;;5094021;28;20403;-72
2021/05/23 10:19:31;;;;;;;3.07;1.47;;;14.40;91.70;;;;;;5115081;27;20409;-73
2021/05/23 10:21:59;;;;;;;2.43;1.40;;;14.50;91.50;;;;;;5129331;27;20423;-70
2021/05/23 10:24:27;;;;;;;2.70;1.40;;;14.60;91.50;;;;;;5114044;28;20450;-72
2021/05/23 10:26:56;;;;;;;1.47;1.27;;;14.50;90.40;;;;;;5114574;28;20496;-70
2021/05/23 10:29:23;;;;;;;4.97;2.13;;;14.50;90.40;;;;;;5113866;28;20448;-72
2021/05/23 10:31:48;;;;;;;3.73;1.37;;;14.60;90.60;;;;;;5114728;27;20503;-74
2021/05/23 10:34:14;;;;;;;1.60;1.30;;;14.60;90.50;;;;;;5113595;28;20418;-73
2021/05/23 10:36:42;;;;;;;7.53;2.50;;;14.60;90.90;;;;;;5115897;28;20172;-72
2021/05/23 10:39:10;;;;;;;7.07;2.10;;;14.70;91.10;;;;;;5114722;28;20160;-73
2021/05/23 10:41:36;;;;;;;3.50;1.83;;;14.60;90.40;;;;;;5114593;28;20409;-73
2021/05/23 10:44:05;;;;;;;2.13;1.80;;;14.70;90.40;;;;;;5112411;28;20422;-72
2021/05/23 10:46:31;;;;;;;3.10;1.70;;;14.80;90.50;;;;;;5114787;28;20549;-72
2021/05/23 10:49:01;;;;;;;3.80;1.87;;;14.70;89.70;;;;;;5114247;28;20397;-73
2021/05/23 10:51:28;;;;;;;2.80;1.80;;;14.70;89.90;;;;;;5114076;27;20219;-73
2021/05/23 10:53:54;;;;;;;2.30;1.90;;;14.60;89.50;;;;;;5112785;28;20410;-72
2021/05/23 10:56:26;;;;;;;3.93;3.20;;;14.50;90.10;;;;;;5121050;28;20414;-72
2021/05/23 10:59:02;;;;;;;2.33;1.70;;;14.60;90.60;;;;;;5122062;28;20412;-73
2021/05/23 11:01:43;;;;;;;1.87;1.70;;;14.80;89.60;;;;;;5114243;28;20894;-72
2021/05/23 11:04:11;;;;;;;2.10;1.90;;;14.90;88.80;;;;;;5113409;28;20496;-72
2021/05/23 11:06:37;;;;;;;2.53;2.30;;;14.90;87.90;;;;;;5113662;28;20443;-72
2021/05/23 11:09:21;;;;;;;3.60;1.77;;;15.00;88.00;;;;;;5113218;27;20430;-73
2021/05/23 11:11:47;;;;;;;2.60;1.67;;;15.20;87.00;;;;;;5112861;28;20503;-72
2021/05/23 11:14:23;;;;;;;3.30;1.90;;;15.20;86.30;;;;;;5113357;28;20462;-73
2021/05/23 11:16:59;;;;;;;2.80;1.60;;;15.30;87.00;;;;;;5112494;28;20739;-73
2021/05/23 11:19:26;;;;;;;2.13;1.93;;;15.20;86.40;;;;;;5124352;28;20405;-72
2021/05/23 11:21:54;;;;;;;2.33;1.40;;;15.20;86.20;;;;;;5149269;27;20450;-72
2021/05/23 11:24:26;;;;;;;2.10;1.10;;;15.10;85.50;;;;;;5144352;27;20409;-72
2021/05/23 11:26:52;;;;;;;3.47;1.50;;;15.20;84.70;;;;;;5111674;27;20505;-74
2021/05/23 11:29:19;;;;;;;4.37;2.13;;;15.20;83.10;;;;;;5093809;28;20459;-72
2021/05/23 11:31:48;;;;;;;1.93;1.77;;;15.20;83.30;;;;;;5095780;27;20316;-73
2021/05/23 11:34:20;;;;;;;2.00;1.37;;;15.20;82.20;;;;;;5105495;28;20939;-74
2021/05/23 11:36:46;;;;;;;2.20;1.33;;;15.10;79.60;;;;;;5115488;28;20417;-75
2021/05/23 11:39:14;;;;;;;20.80;17.40;;;14.90;80.00;;;;;;5110450;28;20512;-72
2021/05/23 11:41:44;;;;;;;11.60;9.23;;;15.00;83.00;;;;;;5118308;28;20417;-75
2021/05/23 11:44:12;;;;;;;3.28;2.20;;;15.30;85.30;;;;;;5115898;28;20453;-76
2021/05/23 11:46:40;;;;;;;1.97;1.53;;;15.40;81.20;;;;;;5118674;28;20173;-75
2021/05/23 11:49:06;;;;;;;2.70;2.10;;;15.50;79.10;;;;;;5098920;27;20473;-75
2021/05/23 11:51:34;;;;;;;4.73;2.10;;;15.30;78.50;;;;;;5102465;28;20449;-76
2021/05/23 11:54:01;;;;;;;2.43;1.60;;;15.40;79.50;;;;;;5101894;28;20200;-75
2021/05/23 11:56:35;;;;;;;2.83;2.60;;;15.40;79.40;;;;;;5112152;28;20792;-73
2021/05/23 11:59:10;;;;;;;4.73;1.70;;;15.40;81.30;;;;;;5122906;28;20425;-75
2021/05/23 12:01:40;;;;;;;5.97;4.10;;;15.40;80.80;;;;;;5129923;28;20475;-74
2021/05/23 12:04:14;;;;;;;3.23;1.70;;;15.20;82.30;;;;;;5128616;28;20480;-75
2021/05/23 12:06:41;;;;;;;2.53;1.50;;;15.10;82.30;;;;;;5120788;28;20428;-75
2021/05/23 12:09:29;;;;;;;2.10;1.30;;;15.00;82.10;;;;;;5107743;27;20445;-75
2021/05/23 12:12:00;;;;;;;1.87;1.17;;;15.00;82.10;;;;;;5097885;28;20451;-76
2021/05/23 12:14:47;;;;;;;2.47;1.90;;;14.90;80.30;;;;;;5097155;28;20448;-76
2021/05/23 12:17:18;;;;;;;3.10;1.60;;;15.00;78.90;;;;;;5097492;28;20398;-75
2021/05/23 12:19:57;;;;;;;3.80;1.27;;;15.00;78.80;;;;;;5106202;27;20608;-76
2021/05/23 12:22:35;;;;;;;5.40;1.57;;;15.10;79.80;;;;;;5118330;28;20536;-76
2021/05/23 12:25:04;;;;;;;3.83;1.37;;;15.00;79.70;;;;;;5126463;27;20455;-76
2021/05/23 12:27:32;;;;;;;2.07;1.57;;;14.90;80.60;;;;;;5138004;28;20402;-76
2021/05/23 12:30:23;;;;;;;3.87;1.57;;;14.80;79.50;;;;;;5136999;28;20434;-76
2021/05/23 12:32:52;;;;;;;1.50;1.40;;;14.90;79.70;;;;;;5138470;28;20605;-76
2021/05/23 12:35:25;;;;;;;2.17;1.33;;;14.90;80.00;;;;;;5138546;27;20434;-78
2021/05/23 12:38:02;;;;;;;2.43;1.37;;;14.90;76.80;;;;;;5139350;28;20462;-75
2021/05/23 12:41:00;;;;;;;2.20;1.57;;;14.80;77.10;;;;;;5135646;28;20398;-75
2021/05/23 12:43:34;;;;;;;4.73;2.07;;;14.80;77.10;;;;;;5093638;28;20527;-75
2021/05/23 12:46:04;;;;;;;3.33;1.73;;;14.80;76.20;;;;;;5080493;28;20432;-75
2021/05/23 12:48:32;;;;;;;3.63;1.20;;;14.80;76.80;;;;;;5075315;28;20420;-76